Saturday, October 20, 2018, 7:28 AM EDT
Back to Local

KLEB, Lebanon Municipal Airport

Location: Lebanon, NH, United States Lat: 43.633
Local Time: 7:28 AM EDT (11:28 GMT) Lon: -72.3
Time Zone: US/Eastern Elev: 597 ft

Show me the last for .
Show Decoded

2018-10-20 06:53 METAR KLEB 201053Z 19010KT 10SM OVC041 11/04 A2958 RMK AO2 SLP013 T01110044 =
2018-10-20 05:53 METAR KLEB 200953Z 18015KT 10SM OVC047 11/04 A2957 RMK AO2 SLP012 T01110039 =
2018-10-20 04:53 METAR KLEB 200853Z AUTO 20006KT 10SM OVC050 11/03 A2961 RMK AO2 SLP023 T01060033
                 56031 =
2018-10-20 03:53 METAR KLEB 200753Z AUTO 18013KT 10SM OVC080 11/03 A2963 RMK AO2 SLP029 T01060028
                 =
2018-10-20 02:53 METAR KLEB 200653Z AUTO 20010KT 10SM OVC070 11/02 A2966 RMK AO2 SLP039 T01060022
                 =
2018-10-20 01:53 METAR KLEB 200553Z AUTO 20009KT 10SM FEW080 BKN100 11/01 A2970 RMK AO2 SLP055
                 T01110011 10128 20100 56028 =
2018-10-20 00:53 METAR KLEB 200453Z AUTO 19010KT 10SM CLR 11/01 A2973 RMK AO2 SLP064 T01110011
                 401721039 =
2018-10-19 23:53 METAR KLEB 200353Z AUTO 18010KT 10SM CLR 11/02 A2975 RMK AO2 SLP073 T01110022 =
2018-10-19 22:53 METAR KLEB 200253Z AUTO 19008KT 10SM CLR 12/02 A2979 RMK AO2 SLP085 T01170022
                 58023 =
2018-10-19 21:53 METAR KLEB 200153Z 18012G21KT 10SM CLR 12/03 A2981 RMK AO2 SLP093 T01220028 =
2018-10-19 20:53 METAR KLEB 200053Z 18007KT 10SM CLR 11/04 A2984 RMK AO2 SLP107 T01060039 =
2018-10-19 19:53 METAR KLEB 192353Z 17005KT 10SM CLR 11/04 A2986 RMK AO2 SLP114 T01060039 10172
                 20100 58017 =
2018-10-19 18:53 METAR KLEB 192253Z 16004KT 10SM CLR 12/04 A2988 RMK AO2 SLP123 T01170039 =
2018-10-19 17:53 METAR KLEB 192153Z 17006KT 10SM CLR 11/04 A2990 RMK AO2 SLP131 T01060044 =
2018-10-19 16:53 METAR KLEB 192053Z 16005KT 10SM CLR 17/04 A2991 RMK AO2 SLP129 T01670039 56019 =
2018-10-19 15:53 METAR KLEB 191953Z 23009KT 10SM CLR 17/03 A2992 RMK AO2 SLP133 T01720028 =
2018-10-19 14:53 METAR KLEB 191853Z 18011KT 10SM CLR 16/03 A2994 RMK AO2 SLP139 T01610028 =
2018-10-19 13:53 METAR KLEB 191753Z 19012KT 10SM CLR 15/02 A2996 RMK AO2 SLP149 T01500022 10150
                 21022 58042 =
2018-10-19 12:53 METAR KLEB 191653Z 18015KT 10SM CLR 13/02 A3001 RMK AO2 SLP164 T01330017 =
2018-10-19 11:53 METAR KLEB 191553Z 18009G15KT 10SM CLR 11/01 A3005 RMK AO2 SLP182 T01110011 =
2018-10-19 10:53 METAR KLEB 191453Z 22008KT 10SM CLR 09/01 A3009 RMK AO2 SLP195 T00890006 58020 =
2018-10-19 09:53 METAR KLEB 191353Z 19009KT 10SM CLR 07/M01 A3011 RMK AO2 SLP202 T00721006 =
2018-10-19 08:53 METAR KLEB 191253Z 00000KT 10SM CLR 01/M02 A3014 RMK AO2 SLP213 T00111022 =
2018-10-19 07:53 METAR KLEB 191153Z 00000KT 10SM CLR M02/M04 A3015 RMK AO2 SLP220 I1000 I6000
                 T10221044 11011 21039 58004 =

Support USWX by starting your Amazon purchase here.